Terminal Aerodrome Forecast
Issued by NWS

Home | Current Version | Previous Version | Text Only | Print | Product List | Glossary On
Versions: 1 2 3 4 5 6 7 8 9 10 11 12 13 14 15 16 17 18 19 20 21 22 23
112
FTUS43 KAPX 252352 RRA
TAFTVC
TAF
KTVC 252352Z 2600/2624 29011G21KT P6SM VCSH OVC040
     FM260400 28008KT P6SM BKN070
     FM260900 23006KT P6SM BKN090
     FM261200 22009KT P6SM VCSH BKN070
     FM261800 22015G23KT P6SM OVC050=

USA.gov is the U.S. government's official web portal to all federal, state and local government web resources and services.